Time;durP1;ratioP1;P1;durP2;ratioP2;P2;SDS_P1;SDS_P2;PMS_P1;PMS_P2;Temp;Humidity;BMP_temperature;BMP_pressure;BME280_temperature;BME280_humidity;BME280_pressure;Samples;Min_cycle;Max_cycle;Signal;HPM_P1;HPM_P2
2021/07/25 00:00:08;;;;;;;28.10;15.45;;;;;;;18.29;77.35;99686.75;1640885;86;21009;-70
2021/07/25 00:02:34;;;;;;;30.80;14.30;;;;;;;18.25;77.54;99683.89;1640752;86;21585;-70
2021/07/25 00:05:03;;;;;;;35.00;16.32;;;;;;;18.24;77.69;99689.84;1643637;86;21090;-69
2021/07/25 00:07:33;;;;;;;47.45;13.72;;;;;;;18.23;77.84;99688.23;1640930;86;21134;-70
2021/07/25 00:10:01;;;;;;;24.63;13.65;;;;;;;18.20;77.87;99686.98;1623525;86;21554;-73
2021/07/25 00:12:31;;;;;;;26.20;13.40;;;;;;;18.21;77.87;99686.39;1638703;86;21124;-73
2021/07/25 00:14:58;;;;;;;26.33;14.98;;;;;;;18.21;77.73;99680.82;1640781;86;20997;-70
2021/07/25 00:17:24;;;;;;;22.02;13.98;;;;;;;18.19;77.69;99682.59;1639475;86;21671;-70
2021/07/25 00:19:51;;;;;;;22.60;14.15;;;;;;;18.18;77.63;99686.56;1643196;86;21512;-74
2021/07/25 00:22:18;;;;;;;21.65;13.18;;;;;;;18.17;77.50;99690.50;1647772;86;21492;-70
2021/07/25 00:24:51;;;;;;;26.87;13.90;;;;;;;18.14;77.36;99687.06;1639982;86;21001;-70
2021/07/25 00:27:13;;;;;;;28.00;13.83;;;;;;;18.13;77.54;99691.03;1639552;86;21091;-71
2021/07/25 00:29:39;;;;;;;21.82;13.40;;;;;;;18.12;77.34;99687.41;1646532;85;21044;-72
2021/07/25 00:32:08;;;;;;;23.42;12.90;;;;;;;18.11;77.27;99690.56;1672432;85;21096;-70
2021/07/25 00:34:36;;;;;;;21.05;12.50;;;;;;;18.09;77.44;99683.15;1671011;85;21038;-71
2021/07/25 00:37:02;;;;;;;25.50;14.40;;;;;;;18.06;77.48;99681.09;1636168;87;21048;-70
2021/07/25 00:39:29;;;;;;;20.65;14.05;;;;;;;18.06;77.58;99679.70;1621280;87;21055;-71
2021/07/25 00:41:55;;;;;;;19.20;12.40;;;;;;;18.05;77.68;99682.28;1612145;87;21075;-71
2021/07/25 00:44:24;;;;;;;19.95;13.50;;;;;;;18.03;77.62;99677.08;1635960;86;21161;-70
2021/07/25 00:46:59;;;;;;;19.92;12.20;;;;;;;18.02;77.66;99681.02;1620803;87;21025;-70
2021/07/25 00:49:30;;;;;;;20.82;12.78;;;;;;;18.01;77.71;99682.99;1622722;86;20925;-73
2021/07/25 00:52:04;;;;;;;24.75;13.83;;;;;;;18.00;77.81;99686.97;1621970;87;22157;-70
2021/07/25 00:54:31;;;;;;;19.02;13.00;;;;;;;17.98;77.78;99681.55;1634814;87;21033;-70
2021/07/25 00:57:00;;;;;;;22.35;14.55;;;;;;;17.95;77.77;99683.08;1622813;87;21671;-70
2021/07/25 00:59:27;;;;;;;21.07;15.18;;;;;;;17.89;77.83;99675.59;1611617;87;21083;-71
2021/07/25 01:01:53;;;;;;;23.73;12.68;;;;;;;17.87;77.97;99679.92;1620572;87;21111;-74
2021/07/25 01:04:52;;;;;;;20.00;12.23;;;;;;;17.82;77.95;99688.58;1635776;86;21586;-75
2021/07/25 01:07:31;;;;;;;27.30;14.20;;;;;;;17.79;77.85;99680.37;1617538;88;21503;-72
2021/07/25 01:10:24;;;;;;;23.32;14.03;;;;;;;17.77;77.72;99684.11;1619160;88;21007;-71
2021/07/25 01:13:12;;;;;;;24.47;14.55;;;;;;;17.74;77.64;99683.45;1617231;87;21084;-72
2021/07/25 01:15:40;;;;;;;19.80;14.35;;;;;;;17.72;77.62;99688.58;1617773;87;21032;-69
2021/07/25 01:18:09;;;;;;;20.82;13.95;;;;;;;17.68;77.57;99691.86;1619705;87;21555;-72
2021/07/25 01:20:36;;;;;;;20.90;14.30;;;;;;;17.64;77.65;99687.59;1621611;87;21073;-69
2021/07/25 01:23:03;;;;;;;18.90;12.78;;;;;;;17.60;77.99;99690.33;1636047;87;21103;-71
2021/07/25 01:25:30;;;;;;;21.25;14.30;;;;;;;17.58;78.13;99691.84;1614656;88;20993;-71
2021/07/25 01:28:09;;;;;;;25.02;12.90;;;;;;;17.58;78.13;99690.45;1624044;87;21130;-71
2021/07/25 01:30:40;;;;;;;23.12;13.50;;;;;;;17.57;78.18;99687.45;1602791;87;21080;-71
2021/07/25 01:33:21;;;;;;;23.55;12.65;;;;;;;17.57;78.25;99692.42;1593681;90;21039;-72
2021/07/25 01:35:48;;;;;;;19.27;13.28;;;;;;;17.58;78.51;99689.06;1584781;90;21889;-74
2021/07/25 01:38:17;;;;;;;19.02;13.75;;;;;;;17.60;78.64;99685.33;1610917;88;22148;-75
2021/07/25 01:41:02;;;;;;;29.07;14.98;;;;;;;17.60;78.41;99690.33;1625471;88;21085;-75
2021/07/25 01:43:31;;;;;;;19.90;13.48;;;;;;;17.58;78.50;99691.27;1612651;88;20958;-74
2021/07/25 01:45:59;;;;;;;23.27;15.25;;;;;;;17.57;78.55;99687.45;1625021;87;21072;-76
2021/07/25 01:48:28;;;;;;;22.05;13.00;;;;;;;17.55;78.40;99686.43;1621742;88;21834;-71
2021/07/25 01:50:55;;;;;;;22.60;13.48;;;;;;;17.52;78.47;99682.38;1626682;87;21033;-73
2021/07/25 01:53:24;;;;;;;21.00;13.22;;;;;;;17.51;78.47;99682.17;1607489;88;21772;-70
2021/07/25 01:55:54;;;;;;;21.75;13.90;;;;;;;17.51;78.41;99686.92;1624125;88;21555;-75
2021/07/25 01:58:22;;;;;;;20.68;13.38;;;;;;;17.49;78.49;99689.26;1608202;88;21046;-76
2021/07/25 02:00:52;;;;;;;24.12;14.98;;;;;;;17.48;78.73;99691.25;1620970;88;21758;-76
2021/07/25 02:03:25;;;;;;;22.37;14.18;;;;;;;17.49;78.99;99694.83;1627133;87;21666;-72
2021/07/25 02:05:52;;;;;;;19.12;13.43;;;;;;;17.47;79.12;99692.41;1624203;88;21544;-76
2021/07/25 02:08:20;;;;;;;24.40;14.28;;;;;;;17.47;79.02;99696.59;1627372;88;21554;-74
2021/07/25 02:10:52;;;;;;;27.48;15.20;;;;;;;17.48;78.88;99696.02;1612104;88;21057;-75
2021/07/25 02:13:20;;;;;;;19.05;14.10;;;;;;;17.47;78.86;99698.58;1627611;88;21832;-70
2021/07/25 02:15:46;;;;;;;21.95;14.73;;;;;;;17.46;78.85;99696.95;1593715;90;21156;-71
2021/07/25 02:18:15;;;;;;;22.65;13.45;;;;;;;17.45;78.71;99691.17;1582404;90;21087;-71
2021/07/25 02:20:44;;;;;;;20.27;13.05;;;;;;;17.44;78.65;99695.11;1620684;87;21120;-70
2021/07/25 02:23:11;;;;;;;20.68;13.83;;;;;;;17.42;78.66;99698.26;1571356;90;21606;-75
2021/07/25 02:25:38;;;;;;;18.48;13.15;;;;;;;17.42;78.62;99701.05;1585472;89;21862;-74
2021/07/25 02:28:09;;;;;;;18.00;13.38;;;;;;;17.41;78.60;99703.61;1587728;90;21151;-72
2021/07/25 02:30:35;;;;;;;21.70;13.55;;;;;;;17.40;78.55;99702.80;1588220;88;21051;-73
2021/07/25 02:33:05;;;;;;;22.85;14.75;;;;;;;17.40;78.61;99708.95;1621463;87;21076;-76
2021/07/25 02:35:33;;;;;;;19.02;12.63;;;;;;;17.39;78.90;99707.34;1591466;90;21087;-72
2021/07/25 02:38:01;;;;;;;26.35;13.70;;;;;;;17.38;78.86;99707.92;1617618;88;21970;-74
2021/07/25 02:40:30;;;;;;;19.85;12.93;;;;;;;17.39;78.71;99707.34;1621697;88;21048;-73
2021/07/25 02:42:56;;;;;;;20.70;11.73;;;;;;;17.38;78.72;99708.52;1619983;87;21501;-73
2021/07/25 02:45:24;;;;;;;21.30;13.45;;;;;;;17.36;78.71;99713.06;1621088;88;21084;-72
2021/07/25 02:47:53;;;;;;;20.30;12.18;;;;;;;17.36;78.75;99710.86;1615074;88;21036;-76
2021/07/25 02:50:21;;;;;;;20.70;13.45;;;;;;;17.35;78.97;99719.78;1623518;87;22035;-71
2021/07/25 02:52:48;;;;;;;23.27;13.10;;;;;;;17.34;79.16;99722.94;1623001;88;21064;-76
2021/07/25 02:55:15;;;;;;;21.48;14.10;;;;;;;17.34;79.30;99715.97;1623021;88;21060;-72
2021/07/25 02:57:48;;;;;;;26.30;14.10;;;;;;;17.34;79.25;99711.80;1617794;88;21583;-72
2021/07/25 03:00:15;;;;;;;18.35;12.37;;;;;;;17.33;79.33;99716.55;1615979;87;21150;-75
2021/07/25 03:02:41;;;;;;;21.60;13.60;;;;;;;17.34;79.39;99713.19;1623074;88;22138;-71
2021/07/25 03:05:11;;;;;;;18.07;12.75;;;;;;;17.33;79.48;99714.37;1594264;90;21540;-75
2021/07/25 03:07:41;;;;;;;22.45;14.47;;;;;;;17.34;79.60;99719.57;1620277;87;21100;-72
2021/07/25 03:10:08;;;;;;;23.12;12.93;;;;;;;17.37;79.66;99722.20;1618250;87;21136;-71
2021/07/25 03:12:34;;;;;;;22.42;12.70;;;;;;;17.38;79.61;99719.05;1622917;87;21593;-74
2021/07/25 03:15:01;;;;;;;20.65;13.62;;;;;;;17.41;79.71;99725.89;1623284;87;21117;-74
2021/07/25 03:17:28;;;;;;;21.33;14.18;;;;;;;17.44;79.89;99725.17;1622469;88;21335;-74
2021/07/25 03:19:58;;;;;;;26.55;14.05;;;;;;;17.48;80.06;99733.61;1623773;86;21037;-74
2021/07/25 03:22:24;;;;;;;21.10;14.03;;;;;;;17.51;80.44;99735.66;1608437;88;21040;-74
2021/07/25 03:24:51;;;;;;;21.80;13.70;;;;;;;17.53;80.54;99738.91;1622895;87;21581;-72
2021/07/25 03:27:20;;;;;;;20.37;13.40;;;;;;;17.57;80.46;99742.56;1622087;87;21113;-73
2021/07/25 03:29:46;;;;;;;20.05;14.13;;;;;;;17.61;80.75;99737.89;1622989;87;21526;-74
2021/07/25 03:32:18;;;;;;;17.73;13.60;;;;;;;17.63;80.87;99741.13;1622324;87;21154;-72
2021/07/25 03:34:41;;;;;;;21.25;13.65;;;;;;;17.68;80.96;99745.61;1622852;87;21534;-76
2021/07/25 03:37:10;;;;;;;24.43;13.55;;;;;;;17.73;80.89;99741.14;1627182;87;21105;-75
2021/07/25 03:39:37;;;;;;;20.92;15.05;;;;;;;17.82;80.58;99742.91;1622811;88;22001;-74
2021/07/25 03:42:07;;;;;;;21.12;15.35;;;;;;;17.91;80.14;99745.50;1606121;88;21091;-76
2021/07/25 03:44:34;;;;;;;26.37;16.70;;;;;;;17.99;79.85;99750.87;1632106;87;21580;-74
2021/07/25 03:47:01;;;;;;;28.80;19.27;;;;;;;18.08;79.58;99747.05;1610192;88;21020;-73
2021/07/25 03:49:27;;;;;;;24.20;18.05;;;;;;;18.18;79.31;99759.05;1586219;89;21517;-72
2021/07/25 03:51:56;;;;;;;21.97;15.28;;;;;;;18.29;78.97;99755.68;1613356;87;21096;-70
2021/07/25 03:54:24;;;;;;;21.65;15.72;;;;;;;18.37;78.57;99758.22;1603949;88;21055;-69
2021/07/25 03:56:52;;;;;;;20.90;15.23;;;;;;;18.44;78.38;99758.95;1622893;87;21072;-70
2021/07/25 03:59:19;;;;;;;22.87;15.08;;;;;;;18.48;78.47;99757.05;1617563;88;21056;-71
2021/07/25 04:01:47;;;;;;;25.27;15.32;;;;;;;18.54;78.65;99756.17;1624399;87;21532;-71
2021/07/25 04:04:14;;;;;;;24.75;14.98;;;;;;;18.60;78.53;99756.08;1606909;88;21072;-70
2021/07/25 04:06:41;;;;;;;24.32;15.98;;;;;;;18.69;78.49;99762.83;1630843;87;21066;-70
2021/07/25 04:09:10;;;;;;;22.60;14.73;;;;;;;18.81;78.27;99755.45;1621509;88;21093;-70
2021/07/25 04:11:40;;;;;;;27.20;16.70;;;;;;;18.92;77.93;99752.26;1597242;88;21520;-71
2021/07/25 04:14:08;;;;;;;33.88;17.25;;;;;;;19.03;77.53;99754.44;1617123;87;21548;-70
2021/07/25 04:16:35;;;;;;;31.35;17.02;;;;;;;19.14;77.15;99759.63;1624017;87;21122;-70
2021/07/25 04:19:03;;;;;;;29.92;16.45;;;;;;;19.26;76.70;99757.84;1629204;87;21530;-70
2021/07/25 04:21:33;;;;;;;29.95;16.90;;;;;;;19.34;76.31;99755.38;1631183;87;21576;-71
2021/07/25 04:24:00;;;;;;;30.77;16.55;;;;;;;19.44;75.85;99758.94;1622773;88;21089;-69
2021/07/25 04:26:27;;;;;;;32.48;17.52;;;;;;;19.54;75.61;99762.26;1601319;88;21022;-70
2021/07/25 04:28:54;;;;;;;30.77;17.20;;;;;;;19.63;75.41;99760.02;1619059;88;21149;-70
2021/07/25 04:31:25;;;;;;;31.75;18.17;;;;;;;19.74;75.11;99757.97;1609841;88;21067;-69
2021/07/25 04:33:54;;;;;;;28.00;16.97;;;;;;;19.80;75.07;99754.47;1600130;88;21353;-69
2021/07/25 04:36:30;;;;;;;27.13;16.57;;;;;;;19.89;74.96;99757.58;1622294;87;21131;-71
2021/07/25 04:39:00;;;;;;;29.67;17.48;;;;;;;19.95;75.02;99756.05;1619945;88;21104;-71
2021/07/25 04:41:28;;;;;;;28.98;18.55;;;;;;;20.04;74.70;99762.21;1622830;87;21881;-70
2021/07/25 04:44:08;;;;;;;26.73;16.37;;;;;;;20.13;74.49;99760.50;1619617;88;21059;-74
2021/07/25 04:46:40;;;;;;;24.98;14.78;;;;;;;20.22;74.12;99762.20;1618041;87;21111;-72
2021/07/25 04:49:13;;;;;;;26.27;15.98;;;;;;;20.28;74.37;99766.29;1634863;86;21087;-69
2021/07/25 04:51:41;;;;;;;26.02;15.03;;;;;;;20.31;74.51;99767.73;1610611;87;21056;-70
2021/07/25 04:54:11;;;;;;;26.00;17.50;;;;;;;20.37;73.98;99766.00;1599635;88;21572;-72
2021/07/25 04:56:57;;;;;;;32.80;16.45;;;;;;;20.45;73.86;99772.47;1622966;87;21505;-73
2021/07/25 04:59:30;;;;;;;29.70;16.15;;;;;;;20.56;73.60;99776.19;1610134;88;21024;-73
2021/07/25 05:02:06;;;;;;;25.10;16.62;;;;;;;20.66;73.16;99774.70;1594515;88;21040;-71
2021/07/25 05:04:35;;;;;;;25.77;16.62;;;;;;;20.74;72.61;99771.39;1609313;88;21124;-75
2021/07/25 05:07:02;;;;;;;24.05;15.88;;;;;;;20.82;72.23;99771.67;1610733;88;21835;-71
2021/07/25 05:09:33;;;;;;;34.05;16.10;;;;;;;20.87;71.96;99781.13;1606185;88;21088;-73
2021/07/25 05:12:19;;;;;;;35.58;17.62;;;;;;;20.85;71.77;99782.09;1619827;88;21060;-71
2021/07/25 05:15:06;;;;;;;23.52;14.80;;;;;;;20.93;72.03;99781.63;1622563;88;21295;-71
2021/07/25 05:17:42;;;;;;;26.57;15.28;;;;;;;21.01;71.78;99788.90;1610333;88;21527;-74
2021/07/25 05:20:18;;;;;;;24.60;15.00;;;;;;;21.08;71.87;99783.96;1599072;88;21584;-71
2021/07/25 05:23:02;;;;;;;27.02;15.98;;;;;;;21.15;71.45;99782.60;1627228;87;21111;-71
2021/07/25 05:25:30;;;;;;;;;;;;;;;21.23;71.45;99779.87;1634669;86;21108;-75
2021/07/25 05:27:57;;;;;;;21.93;13.93;;;;;;;21.30;71.08;99785.54;1622940;87;20179;-69
2021/07/25 05:30:25;;;;;;;23.90;14.43;;;;;;;21.34;70.34;99779.36;1621377;87;21064;-71
2021/07/25 05:32:58;;;;;;;25.57;15.80;;;;;;;21.46;70.02;99778.86;1622713;87;21041;-70
2021/07/25 05:35:24;;;;;;;27.93;14.23;;;;;;;21.57;69.50;99782.54;1622752;87;21104;-70
2021/07/25 05:37:54;;;;;;;27.48;14.05;;;;;;;21.71;69.04;99783.83;1622839;87;21040;-72
2021/07/25 05:40:22;;;;;;;22.52;13.20;;;;;;;21.77;68.08;99778.05;1614093;88;21072;-75
2021/07/25 05:42:49;;;;;;;25.48;13.15;;;;;;;21.88;68.16;99790.78;1622656;86;21048;-75
2021/07/25 05:45:17;;;;;;;17.50;12.70;;;;;;;21.96;67.67;99781.80;1622636;87;21056;-70
2021/07/25 05:47:49;;;;;;;24.40;13.05;;;;;;;22.07;67.61;99788.88;1610224;88;21553;-75
2021/07/25 05:50:20;;;;;;;17.17;12.40;;;;;;;22.17;67.31;99790.94;1618045;86;21061;-75
2021/07/25 05:52:50;;;;;;;18.00;11.03;;;;;;;22.27;66.71;99790.77;1622719;88;21061;-73
2021/07/25 05:55:23;;;;;;;16.95;9.08;;;;;;;22.36;65.64;99794.03;1622132;87;21029;-73
2021/07/25 05:57:52;;;;;;;13.58;9.43;;;;;;;22.45;63.88;99792.86;1622062;87;21162;-69
2021/07/25 06:00:19;;;;;;;14.35;8.63;;;;;;;22.52;62.50;99794.27;1617722;88;21064;-70
2021/07/25 06:03:00;;;;;;;19.32;9.45;;;;;;;22.61;61.62;99789.13;1622092;87;22263;-70
2021/07/25 06:05:29;;;;;;;19.35;10.55;;;;;;;22.69;61.47;99784.94;1620966;88;21021;-73
2021/07/25 06:07:57;;;;;;;13.25;7.97;;;;;;;22.78;60.63;99783.13;1622264;88;21580;-69
2021/07/25 06:10:28;;;;;;;13.15;8.10;;;;;;;22.86;59.75;99782.75;1621269;88;21521;-74
2021/07/25 06:12:59;;;;;;;14.50;8.75;;;;;;;22.92;58.86;99780.36;1607941;88;21044;-70
2021/07/25 06:15:29;;;;;;;15.53;8.30;;;;;;;22.98;59.02;99784.97;1609718;87;21134;-69
2021/07/25 06:17:56;;;;;;;14.28;8.18;;;;;;;23.03;58.46;99780.36;1634565;87;21147;-67
2021/07/25 06:20:25;;;;;;;12.00;8.68;;;;;;;23.12;57.27;99780.56;1602190;88;21076;-69
2021/07/25 06:22:53;;;;;;;24.70;10.65;;;;;;;23.18;57.26;99781.20;1622671;87;21927;-69
2021/07/25 06:25:27;;;;;;;12.28;9.20;;;;;;;23.25;57.52;99784.61;1633566;87;21076;-73
2021/07/25 06:28:00;;;;;;;13.40;9.13;;;;;;;23.26;57.16;99786.20;1636890;86;21119;-69
2021/07/25 06:30:27;;;;;;;17.35;10.60;;;;;;;23.31;58.50;99787.21;1602460;88;21205;-72
2021/07/25 06:33:08;;;;;;;14.40;9.80;;;;;;;23.37;59.55;99789.03;1608478;88;21086;-70
2021/07/25 06:35:39;;;;;;;13.83;9.95;;;;;;;23.44;60.17;99789.66;1604651;87;21600;-75
2021/07/25 06:38:17;;;;;;;12.82;9.00;;;;;;;23.51;60.11;99788.84;1605049;87;21066;-76
2021/07/25 06:40:50;;;;;;;19.25;9.78;;;;;;;23.61;60.22;99795.66;1605205;88;21036;-73
2021/07/25 06:43:20;;;;;;;19.00;9.88;;;;;;;23.69;59.18;99789.63;1611857;88;21664;-70
2021/07/25 06:45:51;;;;;;;14.75;10.32;;;;;;;23.77;57.95;99790.41;1588951;89;22114;-75
2021/07/25 06:48:26;;;;;;;11.73;8.95;;;;;;;23.88;57.60;99792.39;1622956;88;21613;-70
2021/07/25 06:50:56;;;;;;;11.15;8.18;;;;;;;23.96;56.88;99796.80;1622814;86;21032;-72
2021/07/25 06:53:31;;;;;;;11.35;9.03;;;;;;;24.04;56.61;99804.59;1618746;88;21068;-69
2021/07/25 06:56:03;;;;;;;10.60;8.40;;;;;;;24.11;55.71;99801.77;1622397;88;21189;-72
2021/07/25 06:58:36;;;;;;;9.63;8.33;;;;;;;24.19;55.89;99807.59;1622611;87;21605;-76
2021/07/25 07:01:02;;;;;;;13.62;9.03;;;;;;;24.28;55.65;99806.36;1605559;88;21126;-72
2021/07/25 07:03:29;;;;;;;10.18;8.53;;;;;;;24.34;55.14;99804.74;1622952;88;21541;-72
2021/07/25 07:05:59;;;;;;;14.65;9.43;;;;;;;24.37;55.24;99812.37;1622443;87;21082;-73
2021/07/25 07:08:26;;;;;;;11.03;8.38;;;;;;;24.42;54.44;99813.36;1622671;88;21048;-69
2021/07/25 07:10:52;;;;;;;11.48;9.35;;;;;;;24.49;54.55;99819.55;1622806;88;21066;-74
2021/07/25 07:13:19;;;;;;;9.58;7.30;;;;;;;24.58;54.10;99821.13;1625198;86;21493;-72
2021/07/25 07:15:48;;;;;;;8.20;6.65;;;;;;;24.65;54.09;99818.28;1624239;86;21096;-73
2021/07/25 07:18:15;;;;;;;13.28;7.25;;;;;;;24.75;52.64;99816.02;1622530;87;21856;-73
2021/07/25 07:20:43;;;;;;;9.85;6.42;;;;;;;24.83;51.41;99813.95;1618817;88;21120;-74
2021/07/25 07:23:15;;;;;;;8.08;6.60;;;;;;;24.91;50.18;99819.76;1626715;86;21067;-68
2021/07/25 07:25:47;;;;;;;11.33;7.28;;;;;;;24.95;49.59;99815.52;1619052;88;21163;-74
2021/07/25 07:28:14;;;;;;;9.13;6.78;;;;;;;25.03;49.73;99808.61;1622204;87;21339;-71
2021/07/25 07:30:43;;;;;;;9.73;7.05;;;;;;;25.03;48.11;99808.61;1622804;88;21497;-73
2021/07/25 07:33:13;;;;;;;10.08;6.92;;;;;;;25.01;49.09;99807.44;1622661;88;21508;-73
2021/07/25 07:35:41;;;;;;;10.08;7.50;;;;;;;25.08;49.34;99806.58;1622839;88;21028;-74
2021/07/25 07:38:10;;;;;;;8.70;7.28;;;;;;;25.18;48.92;99811.31;1622590;87;21521;-75
2021/07/25 07:40:38;;;;;;;14.00;8.48;;;;;;;25.28;48.83;99800.56;1622817;87;21552;-74
2021/07/25 07:43:07;;;;;;;9.73;6.72;;;;;;;25.36;48.41;99803.33;1622600;87;21589;-74
2021/07/25 07:45:36;;;;;;;10.10;7.70;;;;;;;25.40;48.83;99809.75;1622615;88;21056;-70
2021/07/25 07:48:10;;;;;;;8.05;6.67;;;;;;;25.43;49.12;99808.11;1619707;87;21088;-73
2021/07/25 07:50:40;;;;;;;10.93;6.50;;;;;;;25.50;48.67;99808.83;1638051;84;21126;-75
2021/07/25 07:53:09;;;;;;;9.70;6.95;;;;;;;25.62;48.33;99810.97;1605738;88;22185;-70
2021/07/25 07:55:35;;;;;;;9.10;6.85;;;;;;;25.72;47.79;99817.15;1622802;88;21533;-69
2021/07/25 07:58:02;;;;;;;9.78;6.17;;;;;;;25.82;47.14;99817.44;1622983;87;21076;-68
2021/07/25 08:00:28;;;;;;;8.05;6.90;;;;;;;25.91;48.22;99815.55;1622740;88;21076;-68
2021/07/25 08:02:55;;;;;;;15.85;6.90;;;;;;;25.89;47.45;99816.78;1622068;87;21607;-71
2021/07/25 08:05:21;;;;;;;11.18;7.25;;;;;;;25.89;48.56;99818.19;1621917;88;21037;-68
2021/07/25 08:07:50;;;;;;;14.80;7.47;;;;;;;25.99;48.79;99813.64;1621470;88;21060;-70
2021/07/25 08:10:16;;;;;;;8.83;6.75;;;;;;;26.13;48.21;99816.11;1622151;88;21077;-68
2021/07/25 08:12:44;;;;;;;8.35;7.05;;;;;;;26.24;48.04;99811.13;1620678;88;21049;-71
2021/07/25 08:15:12;;;;;;;9.08;6.80;;;;;;;26.31;47.55;99811.66;1629568;86;21140;-72
2021/07/25 08:17:39;;;;;;;13.25;7.03;;;;;;;26.42;48.04;99814.39;1631172;86;21632;-71
2021/07/25 08:20:08;;;;;;;10.88;5.90;;;;;;;26.51;47.13;99816.70;1622089;87;21079;-69
2021/07/25 08:22:35;;;;;;;12.28;6.50;;;;;;;26.64;46.10;99817.53;1607088;88;40064;-69
2021/07/25 08:25:06;;;;;;;9.00;6.20;;;;;;;26.68;45.22;99812.64;1622396;87;21009;-72
2021/07/25 08:27:33;;;;;;;8.28;6.85;;;;;;;26.73;45.31;99812.95;1622289;87;21494;-68
2021/07/25 08:30:00;;;;;;;8.68;6.28;;;;;;;26.61;42.46;99807.26;1621859;88;21057;-69
2021/07/25 08:32:26;;;;;;;7.85;5.67;;;;;;;26.48;44.72;99807.03;1622213;87;21080;-69
2021/07/25 08:34:52;;;;;;;11.70;6.87;;;;;;;26.61;44.31;99810.09;1636204;87;21493;-70
2021/07/25 08:37:22;;;;;;;10.63;6.25;;;;;;;26.83;43.88;99814.65;1638500;86;21115;-69
2021/07/25 08:39:50;;;;;;;8.65;5.87;;;;;;;26.98;43.05;99810.39;1629658;88;21556;-68
2021/07/25 08:42:18;;;;;;;10.65;6.20;;;;;;;27.12;43.54;99807.19;1638472;85;21067;-71
2021/07/25 08:44:56;;;;;;;10.58;5.62;;;;;;;27.28;44.40;99814.98;1627019;88;21052;-72
2021/07/25 08:47:36;;;;;;;9.80;5.92;;;;;;;27.44;44.31;99813.52;1638575;87;21044;-74
2021/07/25 08:50:10;;;;;;;9.98;5.75;;;;;;;27.57;43.46;99816.53;1638445;86;21150;-76
2021/07/25 08:52:48;;;;;;;9.80;6.30;;;;;;;27.60;42.38;99814.27;1636840;87;21148;-69
2021/07/25 08:55:17;;;;;;;6.85;5.78;;;;;;;27.59;41.89;99815.48;1636187;86;21120;-68
2021/07/25 08:57:47;;;;;;;12.82;6.15;;;;;;;27.73;42.66;99820.73;1638893;87;21051;-67
2021/07/25 09:00:17;;;;;;;5.75;4.85;;;;;;;27.91;42.94;99818.37;1638812;87;21040;-79
2021/07/25 09:02:45;;;;;;;24.52;6.75;;;;;;;28.05;41.68;99821.55;1629984;88;21009;-75
2021/07/25 09:05:15;;;;;;;8.23;5.70;;;;;;;28.10;42.34;99825.90;1629913;87;21388;-73
2021/07/25 09:07:45;;;;;;;12.13;5.70;;;;;;;28.14;42.15;99823.81;1638986;87;21020;-77
2021/07/25 09:10:17;;;;;;;8.03;5.67;;;;;;;28.24;40.38;99823.41;1630249;88;21012;-72
2021/07/25 09:12:46;;;;;;;10.45;5.45;;;;;;;28.23;40.40;99825.26;1600398;88;21028;-74
2021/07/25 09:15:20;;;;;;;6.47;5.75;;;;;;;28.22;41.01;99824.45;1627186;87;21355;-66
2021/07/25 09:17:48;;;;;;;9.65;7.42;;;;;;;28.17;40.51;99822.12;1623861;88;21841;-67
2021/07/25 09:20:22;;;;;;;9.08;6.33;;;;;;;28.18;41.26;99818.08;1626933;87;21119;-68
2021/07/25 09:22:57;;;;;;;9.48;5.75;;;;;;;28.29;41.55;99813.59;1627192;87;21501;-69
2021/07/25 09:25:40;;;;;;;7.58;5.83;;;;;;;28.48;41.51;99798.47;1626906;88;21103;-73
2021/07/25 09:28:15;;;;;;;7.45;6.72;;;;;;;28.60;42.14;99808.33;1626866;87;27305;-66
2021/07/25 09:30:52;;;;;;;10.90;6.42;;;;;;;28.75;43.02;99812.44;1626669;87;21510;-73
2021/07/25 09:33:33;;;;;;;15.28;6.58;;;;;;;28.93;41.94;99816.91;1628147;86;21077;-67
2021/07/25 09:36:11;;;;;;;10.28;6.28;;;;;;;28.96;42.56;99813.80;1665392;85;21031;-67
2021/07/25 09:38:42;;;;;;;7.83;6.03;;;;;;;28.92;41.39;99822.39;1665933;85;21083;-68
2021/07/25 09:41:22;;;;;;;8.83;6.67;;;;;;;28.96;40.98;99823.11;1619637;88;21036;-67
2021/07/25 09:44:05;;;;;;;8.93;5.85;;;;;;;29.06;40.20;99821.28;1604656;87;21067;-70
2021/07/25 09:46:45;;;;;;;7.17;5.80;;;;;;;29.12;40.52;99828.02;1619503;88;21092;-68
2021/07/25 09:49:13;;;;;;;9.65;6.33;;;;;;;29.14;40.24;99831.22;1621864;87;21022;-70
2021/07/25 09:51:41;;;;;;;9.18;5.75;;;;;;;29.18;40.72;99835.39;1611470;87;21588;-71
2021/07/25 09:54:08;;;;;;;7.97;5.10;;;;;;;29.14;41.07;99834.05;1623398;88;21081;-70
2021/07/25 09:56:37;;;;;;;8.95;5.28;;;;;;;29.08;40.00;99832.19;1622482;87;21053;-70
2021/07/25 09:59:03;;;;;;;5.80;5.20;;;;;;;29.06;38.45;99829.79;1622595;87;21057;-68
2021/07/25 10:01:42;;;;;;;7.90;5.78;;;;;;;29.06;39.22;99837.49;1620475;88;21021;-67
2021/07/25 10:04:18;;;;;;;12.35;6.03;;;;;;;29.14;39.18;99841.14;1611497;87;20996;-73
2021/07/25 10:06:53;;;;;;;11.53;5.37;;;;;;;29.22;39.48;99839.55;1611633;87;21060;-73
2021/07/25 10:09:25;;;;;;;9.70;6.12;;;;;;;29.29;39.91;99837.97;1636284;87;21579;-74
2021/07/25 10:11:58;;;;;;;7.55;6.25;;;;;;;29.36;39.91;99830.69;1636292;86;21131;-68
2021/07/25 10:14:29;;;;;;;;;;;;;;;29.43;38.60;99826.09;1614033;88;21096;-71
2021/07/25 10:16:59;;;;;;;9.20;6.45;;;;;;;29.45;39.59;99822.16;1609517;88;20151;-69
2021/07/25 10:19:29;;;;;;;9.68;6.28;;;;;;;29.48;40.13;99829.17;1597680;88;21119;-76
2021/07/25 10:21:58;;;;;;;7.72;6.42;;;;;;;29.56;39.12;99825.55;1610256;87;21516;-69
2021/07/25 10:24:27;;;;;;;14.55;6.30;;;;;;;29.61;38.03;99827.88;1611793;88;21069;-69
2021/07/25 10:26:56;;;;;;;11.28;6.50;;;;;;;29.68;40.33;99831.76;1615219;87;21099;-72
2021/07/25 10:29:23;;;;;;;6.72;6.03;;;;;;;29.72;38.14;99828.22;1611443;88;21133;-69
2021/07/25 10:31:55;;;;;;;8.03;5.87;;;;;;;29.73;37.85;99829.80;1605054;88;21515;-70
2021/07/25 10:34:26;;;;;;;6.25;5.62;;;;;;;29.80;38.40;99830.23;1615121;87;22157;-71
2021/07/25 10:36:51;;;;;;;10.43;5.35;;;;;;;29.91;38.07;99831.38;1603322;88;21540;-69
2021/07/25 10:39:22;;;;;;;7.70;5.70;;;;;;;30.04;37.76;99834.25;1611693;88;21083;-71
2021/07/25 10:41:50;;;;;;;5.65;5.08;;;;;;;30.14;37.49;99830.32;1623016;88;21060;-67
2021/07/25 10:44:17;;;;;;;9.90;5.53;;;;;;;30.27;37.43;99824.70;1622558;88;21013;-68
2021/07/25 10:46:45;;;;;;;6.10;4.87;;;;;;;30.34;36.89;99833.02;1622393;88;22117;-68
2021/07/25 10:49:15;;;;;;;9.90;5.58;;;;;;;30.37;36.70;99834.15;1622620;86;21025;-67
2021/07/25 10:51:56;;;;;;;6.05;5.15;;;;;;;30.36;36.00;99836.22;1620461;88;21093;-67
2021/07/25 10:54:29;;;;;;;13.13;5.15;;;;;;;30.39;35.76;99834.50;1621317;88;21577;-67
2021/07/25 10:57:08;;;;;;;14.03;5.67;;;;;;;30.40;36.60;99831.83;1619642;88;21632;-68
2021/07/25 10:59:55;;;;;;;14.68;6.15;;;;;;;30.48;36.90;99831.00;1619780;88;21505;-69
2021/07/25 11:02:29;;;;;;;6.35;4.92;;;;;;;30.54;35.84;99833.45;1621214;88;21045;-69
2021/07/25 11:05:01;;;;;;;9.10;5.42;;;;;;;30.53;34.17;99830.45;1620034;88;21532;-67
2021/07/25 11:07:33;;;;;;;8.48;5.33;;;;;;;30.36;33.85;99828.30;1623065;88;21572;-71
2021/07/25 11:10:12;;;;;;;7.37;4.97;;;;;;;30.15;34.20;99833.33;1623007;87;21024;-70
2021/07/25 11:12:56;;;;;;;5.87;5.25;;;;;;;29.96;35.78;99829.38;1621029;88;21058;-68
2021/07/25 11:15:33;;;;;;;8.85;5.97;;;;;;;29.60;36.56;99830.52;1621453;88;21582;-67
2021/07/25 11:18:01;;;;;;;6.95;5.45;;;;;;;29.22;38.88;99833.27;1620869;88;21330;-75
2021/07/25 11:21:01;;;;;;;10.68;5.72;;;;;;;29.08;39.62;99828.73;1622460;88;21080;-68
2021/07/25 11:23:36;;;;;;;6.85;5.62;;;;;;;28.98;39.32;99822.09;1622216;88;21612;-70
2021/07/25 11:26:32;;;;;;;7.67;5.42;;;;;;;28.79;40.53;99814.59;1622455;87;21105;-70
2021/07/25 11:29:02;;;;;;;15.08;6.10;;;;;;;28.71;40.08;99815.19;1616654;88;21065;-73
2021/07/25 11:31:41;;;;;;;6.72;5.65;;;;;;;28.65;38.58;99820.56;1622505;87;21104;-69
2021/07/25 11:34:10;;;;;;;13.65;5.90;;;;;;;28.59;38.97;99830.83;1624011;87;21009;-68
2021/07/25 11:36:37;;;;;;;7.62;5.65;;;;;;;28.55;40.55;99823.81;1617984;87;21062;-67
2021/07/25 11:39:06;;;;;;;14.05;6.20;;;;;;;28.50;39.82;99824.33;1629728;88;21601;-73